Time;durP1;ratioP1;P1;durP2;ratioP2;P2;SDS_P1;SDS_P2;PMS_P1;PMS_P2;Temp;Humidity;BMP_temperature;BMP_pressure;BME280_temperature;BME280_humidity;BME280_pressure;Samples;Min_cycle;Max_cycle;Signal;HPM_P1;HPM_P2
2021/04/29 00:01:17;;;;;;;7.30;3.38;;;11.70;99.90;;;;;;5041452;28;20037;-63
2021/04/29 00:03:42;;;;;;;6.68;2.92;;;11.80;99.90;;;;;;5044675;28;20021;-61
2021/04/29 00:06:08;;;;;;;5.85;3.38;;;11.70;99.90;;;;;;5045155;28;20025;-63
2021/04/29 00:08:35;;;;;;;3.72;2.92;;;11.70;99.90;;;;;;5046106;28;20017;-63
2021/04/29 00:11:02;;;;;;;8.00;3.03;;;11.70;99.90;;;;;;5044129;28;20021;-63
2021/04/29 00:13:28;;;;;;;5.40;3.25;;;11.70;99.90;;;;;;5052285;28;20043;-59
2021/04/29 00:15:54;;;;;;;3.85;2.75;;;11.60;99.90;;;;;;5045539;28;20032;-62
2021/04/29 00:18:20;;;;;;;7.43;3.58;;;11.60;99.90;;;;;;5053896;28;20128;-60
2021/04/29 00:20:46;;;;;;;5.55;3.22;;;11.60;99.90;;;;;;5053243;28;20033;-63
2021/04/29 00:23:12;;;;;;;5.20;3.40;;;11.50;99.90;;;;;;5062705;28;20543;-64
2021/04/29 00:25:38;;;;;;;5.90;3.33;;;11.50;99.90;;;;;;5056701;28;20402;-61
2021/04/29 00:28:03;;;;;;;4.88;2.97;;;11.50;99.90;;;;;;5057422;28;20025;-62
2021/04/29 00:30:29;;;;;;;6.43;3.22;;;11.40;99.90;;;;;;5044503;28;20100;-62
2021/04/29 00:32:54;;;;;;;7.20;3.30;;;11.30;99.90;;;;;;5060763;28;20027;-63
2021/04/29 00:35:20;;;;;;;7.57;3.30;;;11.30;99.90;;;;;;5060070;28;20063;-60
2021/04/29 00:37:47;;;;;;;7.07;3.72;;;11.20;99.90;;;;;;5048961;28;20065;-61
2021/04/29 00:40:15;;;;;;;4.65;3.10;;;11.20;99.90;;;;;;5044927;28;20433;-63
2021/04/29 00:42:43;;;;;;;5.03;2.80;;;11.20;99.90;;;;;;5043441;28;20022;-62
2021/04/29 00:45:12;;;;;;;5.60;2.95;;;11.10;99.90;;;;;;5048693;28;20049;-63
2021/04/29 00:47:38;;;;;;;9.15;3.47;;;11.00;99.90;;;;;;5059252;28;20401;-63
2021/04/29 00:50:06;;;;;;;3.97;3.00;;;11.00;99.90;;;;;;5057236;28;20460;-63
2021/04/29 00:52:32;;;;;;;6.18;3.33;;;10.90;99.90;;;;;;5052687;28;20029;-63
2021/04/29 00:54:58;;;;;;;4.07;2.88;;;10.90;99.90;;;;;;5057235;28;20028;-63
2021/04/29 00:57:25;;;;;;;4.72;2.75;;;10.80;99.90;;;;;;5044736;28;20417;-63
2021/04/29 00:59:52;;;;;;;6.75;3.42;;;10.70;99.90;;;;;;5056501;28;20028;-64
2021/04/29 01:02:18;;;;;;;6.00;3.20;;;10.70;99.90;;;;;;5055543;28;20114;-63
2021/04/29 01:05:02;;;;;;;5.38;3.70;;;10.70;99.90;;;;;;5062654;28;20109;-62
2021/04/29 01:07:33;;;;;;;3.15;2.45;;;10.60;99.90;;;;;;5048000;28;20036;-64
2021/04/29 01:10:22;;;;;;;4.13;3.20;;;10.60;99.90;;;;;;5047562;28;20036;-64
2021/04/29 01:12:57;;;;;;;7.07;2.85;;;10.60;99.90;;;;;;5053491;28;20394;-63
2021/04/29 01:15:24;;;;;;;4.80;2.95;;;10.70;99.90;;;;;;5054091;28;20036;-63
2021/04/29 01:17:50;;;;;;;7.55;3.58;;;10.70;99.90;;;;;;5060209;28;20040;-62
2021/04/29 01:20:22;;;;;;;4.88;3.03;;;10.70;99.90;;;;;;5057036;28;20032;-61
2021/04/29 01:23:14;;;;;;;5.60;2.78;;;10.80;99.90;;;;;;5068599;28;20492;-63
2021/04/29 01:25:41;;;;;;;6.43;3.00;;;10.80;99.90;;;;;;5047661;28;20021;-63
2021/04/29 01:28:07;;;;;;;8.25;3.22;;;10.80;99.90;;;;;;5041704;28;20036;-62
2021/04/29 01:30:34;;;;;;;6.32;3.53;;;10.90;99.90;;;;;;5053822;28;20099;-62
2021/04/29 01:33:00;;;;;;;6.65;3.80;;;10.90;99.90;;;;;;5046237;28;20029;-63
2021/04/29 01:35:26;;;;;;;6.45;2.95;;;10.90;99.90;;;;;;5053969;28;20158;-63
2021/04/29 01:37:53;;;;;;;6.38;3.00;;;10.90;99.90;;;;;;5052090;28;20068;-63
2021/04/29 01:40:21;;;;;;;4.78;3.03;;;10.80;99.90;;;;;;5056350;28;20029;-57
2021/04/29 01:42:47;;;;;;;5.07;2.60;;;10.80;99.90;;;;;;5048388;28;20021;-63
2021/04/29 01:45:12;;;;;;;6.25;2.97;;;10.90;99.90;;;;;;5052121;28;20039;-62
2021/04/29 01:47:38;;;;;;;8.90;3.42;;;10.90;99.90;;;;;;5056036;28;20013;-64
2021/04/29 01:50:12;;;;;;;7.18;3.05;;;10.90;99.90;;;;;;5063021;28;20024;-61
2021/04/29 01:52:38;;;;;;;4.78;2.92;;;10.90;99.90;;;;;;5052262;28;20036;-62
2021/04/29 01:55:04;;;;;;;5.28;3.30;;;10.90;99.90;;;;;;5057003;28;20021;-63
2021/04/29 01:57:31;;;;;;;5.60;3.08;;;10.90;99.90;;;;;;5054938;28;20082;-63
2021/04/29 01:59:56;;;;;;;5.47;3.03;;;10.90;99.90;;;;;;5047378;28;20083;-63
2021/04/29 02:02:25;;;;;;;5.65;3.13;;;11.00;99.90;;;;;;5047183;28;20041;-62
2021/04/29 02:04:51;;;;;;;4.47;2.90;;;11.00;99.90;;;;;;5054728;28;20029;-62
2021/04/29 02:07:18;;;;;;;6.97;3.03;;;11.10;99.90;;;;;;5056190;28;20447;-64
2021/04/29 02:09:44;;;;;;;6.35;2.95;;;11.00;99.90;;;;;;5056838;28;20497;-57
2021/04/29 02:12:10;;;;;;;4.93;2.83;;;11.10;99.90;;;;;;5051473;28;20033;-61
2021/04/29 02:14:51;;;;;;;3.88;2.80;;;11.00;99.90;;;;;;5055368;28;20020;-63
2021/04/29 02:17:36;;;;;;;5.20;2.40;;;11.10;99.90;;;;;;5048636;28;20037;-63
2021/04/29 02:20:05;;;;;;;5.03;2.85;;;11.10;99.90;;;;;;5060533;28;20057;-63
2021/04/29 02:22:34;;;;;;;6.70;3.22;;;11.00;99.90;;;;;;5062123;28;20067;-63
2021/04/29 02:25:01;;;;;;;4.68;2.90;;;11.00;99.90;;;;;;5060797;28;20425;-63
2021/04/29 02:27:26;;;;;;;6.32;2.60;;;10.90;99.90;;;;;;5062570;28;20097;-63
2021/04/29 02:29:53;;;;;;;5.25;2.80;;;10.90;99.90;;;;;;5059485;28;20017;-63
2021/04/29 02:32:19;;;;;;;7.35;2.42;;;10.90;99.90;;;;;;5056123;28;20039;-63
2021/04/29 02:34:45;;;;;;;4.57;2.60;;;10.90;99.90;;;;;;5065651;28;20021;-62
2021/04/29 02:37:12;;;;;;;11.13;2.75;;;10.90;99.90;;;;;;5062879;28;20032;-64
2021/04/29 02:39:39;;;;;;;5.43;2.60;;;10.90;99.90;;;;;;5062510;28;20025;-63
2021/04/29 02:42:04;;;;;;;5.10;2.50;;;10.90;99.90;;;;;;5063605;28;20033;-63
2021/04/29 02:44:30;;;;;;;3.80;2.35;;;10.90;99.90;;;;;;5055956;28;20907;-63
2021/04/29 02:46:56;;;;;;;6.25;2.70;;;10.90;99.90;;;;;;5049934;28;20082;-62
2021/04/29 02:49:23;;;;;;;6.28;2.13;;;10.90;99.90;;;;;;5042451;28;20036;-61
2021/04/29 02:51:50;;;;;;;4.10;2.60;;;10.90;99.90;;;;;;5069070;28;20051;-63
2021/04/29 02:54:16;;;;;;;5.55;2.72;;;10.90;99.90;;;;;;5058382;28;20408;-63
2021/04/29 02:56:42;;;;;;;4.90;2.53;;;10.80;99.90;;;;;;5061729;28;20036;-63
2021/04/29 02:59:09;;;;;;;6.43;2.88;;;10.80;99.90;;;;;;5058385;28;20085;-63
2021/04/29 03:01:36;;;;;;;8.23;2.90;;;10.70;99.90;;;;;;5050059;28;20490;-64
2021/04/29 03:04:03;;;;;;;4.90;2.95;;;10.60;99.90;;;;;;5057092;28;20253;-63
2021/04/29 03:06:29;;;;;;;4.32;2.47;;;10.60;99.90;;;;;;5062593;28;20020;-63
2021/04/29 03:08:55;;;;;;;4.53;3.13;;;10.60;99.90;;;;;;5056578;28;20033;-63
2021/04/29 03:11:20;;;;;;;6.00;2.72;;;10.70;99.90;;;;;;5062542;28;20016;-63
2021/04/29 03:13:46;;;;;;;4.30;3.05;;;10.70;99.90;;;;;;5056823;28;20029;-62
2021/04/29 03:16:12;;;;;;;7.45;2.70;;;10.80;99.90;;;;;;5066266;28;20034;-57
2021/04/29 03:18:38;;;;;;;5.90;3.50;;;10.80;99.90;;;;;;5054008;28;20501;-63
2021/04/29 03:21:04;;;;;;;8.55;3.40;;;11.00;99.90;;;;;;5049321;28;20078;-62
2021/04/29 03:23:30;;;;;;;11.82;3.10;;;11.00;99.90;;;;;;5053528;28;20043;-63
2021/04/29 03:25:55;;;;;;;6.25;3.40;;;11.10;99.90;;;;;;5043447;28;20025;-64
2021/04/29 03:28:21;;;;;;;7.55;3.30;;;11.10;99.90;;;;;;5048586;28;20028;-64
2021/04/29 03:30:46;;;;;;;5.70;3.35;;;11.20;99.90;;;;;;5051870;28;20024;-64
2021/04/29 03:33:12;;;;;;;5.47;3.38;;;11.20;99.90;;;;;;5051142;28;20034;-64
2021/04/29 03:35:38;;;;;;;8.10;3.28;;;11.20;99.90;;;;;;5047537;28;20029;-64
2021/04/29 03:38:04;;;;;;;5.38;2.95;;;11.30;99.90;;;;;;5045646;28;20506;-64
2021/04/29 03:40:30;;;;;;;5.38;3.13;;;11.30;99.90;;;;;;5051608;28;20040;-64
2021/04/29 03:42:56;;;;;;;6.22;3.45;;;11.40;99.90;;;;;;5042444;28;20036;-63
2021/04/29 03:45:23;;;;;;;5.68;3.70;;;11.40;99.90;;;;;;5052844;28;20116;-64
2021/04/29 03:47:48;;;;;;;5.72;3.42;;;11.40;99.90;;;;;;5059577;28;20044;-64
2021/04/29 03:50:14;;;;;;;6.10;3.80;;;11.40;99.90;;;;;;5058034;28;20020;-62
2021/04/29 03:52:40;;;;;;;9.77;3.97;;;11.30;99.90;;;;;;5046413;28;20018;-62
2021/04/29 03:55:06;;;;;;;9.45;5.57;;;11.40;99.90;;;;;;5046014;28;20506;-64
2021/04/29 03:57:31;;;;;;;7.57;3.55;;;11.40;99.90;;;;;;5049135;28;20037;-64
2021/04/29 03:59:57;;;;;;;6.35;4.18;;;11.30;99.90;;;;;;5041848;28;20083;-64
2021/04/29 04:02:22;;;;;;;5.35;3.65;;;11.30;99.90;;;;;;5014012;28;20127;-64
2021/04/29 04:04:48;;;;;;;7.57;4.22;;;11.30;99.90;;;;;;5049255;28;20488;-64
2021/04/29 04:07:14;;;;;;;7.47;4.22;;;11.40;99.90;;;;;;5042724;28;20036;-64
2021/04/29 04:09:39;;;;;;;5.60;3.85;;;11.30;99.90;;;;;;5040691;28;20017;-63
2021/04/29 04:12:06;;;;;;;8.40;4.05;;;11.30;99.90;;;;;;5045972;28;20032;-64
2021/04/29 04:14:31;;;;;;;7.22;3.95;;;11.30;99.90;;;;;;5050731;28;20105;-64
2021/04/29 04:16:57;;;;;;;7.30;3.72;;;11.30;99.90;;;;;;5043756;28;20175;-63
2021/04/29 04:19:23;;;;;;;9.30;3.53;;;11.30;99.90;;;;;;5049198;28;20032;-63
2021/04/29 04:21:48;;;;;;;11.05;4.40;;;11.30;99.90;;;;;;5049262;28;20107;-63
2021/04/29 04:24:14;;;;;;;6.20;4.22;;;11.30;99.90;;;;;;5057421;28;20025;-63
2021/04/29 04:26:40;;;;;;;9.90;4.53;;;11.30;99.90;;;;;;5052932;28;20024;-63
2021/04/29 04:29:05;;;;;;;9.48;4.78;;;11.30;99.90;;;;;;5052814;28;20033;-64
2021/04/29 04:31:31;;;;;;;9.02;4.93;;;11.30;99.90;;;;;;5041354;28;20457;-64
2021/04/29 04:33:56;;;;;;;11.70;4.35;;;11.30;99.90;;;;;;5061013;28;20056;-64
2021/04/29 04:36:22;;;;;;;7.78;5.13;;;11.20;99.90;;;;;;5057546;28;20113;-65
2021/04/29 04:38:47;;;;;;;8.75;5.63;;;11.30;99.90;;;;;;5068123;28;20428;-64
2021/04/29 04:41:13;;;;;;;9.90;6.38;;;11.30;99.90;;;;;;5058463;28;20009;-63
2021/04/29 04:43:39;;;;;;;12.82;6.82;;;11.30;99.90;;;;;;5045361;28;20101;-64
2021/04/29 04:46:04;;;;;;;10.05;6.15;;;11.20;99.90;;;;;;5062897;28;20028;-63
2021/04/29 04:48:30;;;;;;;11.55;6.53;;;11.30;99.90;;;;;;5058643;28;20033;-64
2021/04/29 04:50:56;;;;;;;13.88;6.57;;;11.30;99.90;;;;;;5051204;28;20040;-64
2021/04/29 04:53:22;;;;;;;12.63;6.90;;;11.30;99.90;;;;;;5052193;28;20120;-65
2021/04/29 04:55:50;;;;;;;10.10;6.97;;;11.30;99.90;;;;;;5058934;28;20025;-63
2021/04/29 04:58:16;;;;;;;11.95;6.95;;;11.20;99.90;;;;;;5052832;28;20078;-63
2021/04/29 05:00:42;;;;;;;12.45;7.57;;;11.30;99.90;;;;;;5061233;28;20059;-64
2021/04/29 05:03:07;;;;;;;12.38;7.32;;;11.30;99.90;;;;;;5044483;28;20084;-64
2021/04/29 05:05:33;;;;;;;16.30;9.40;;;11.30;99.90;;;;;;5056425;28;20037;-64
2021/04/29 05:08:00;;;;;;;15.05;9.15;;;11.30;99.90;;;;;;5062873;28;20099;-64
2021/04/29 05:10:28;;;;;;;13.50;8.30;;;11.30;99.90;;;;;;5053309;28;20494;-64
2021/04/29 05:12:54;;;;;;;19.00;8.73;;;11.30;99.90;;;;;;5062007;28;20520;-64
2021/04/29 05:15:20;;;;;;;14.32;9.00;;;11.30;99.90;;;;;;5055876;28;20409;-64
2021/04/29 05:17:46;;;;;;;18.45;12.38;;;11.40;99.90;;;;;;5056924;28;20009;-64
2021/04/29 05:20:11;;;;;;;16.35;11.95;;;11.40;99.90;;;;;;5051269;28;20013;-61
2021/04/29 05:22:37;;;;;;;13.05;9.90;;;11.40;99.90;;;;;;5041609;28;20487;-64
2021/04/29 05:25:03;;;;;;;20.65;8.68;;;11.40;99.90;;;;;;5045757;28;20104;-65
2021/04/29 05:27:29;;;;;;;14.20;9.40;;;11.40;99.90;;;;;;5045351;28;20033;-66
2021/04/29 05:29:54;;;;;;;17.13;12.50;;;11.50;99.90;;;;;;5050678;28;20021;-64
2021/04/29 05:32:20;;;;;;;24.60;17.90;;;11.50;99.90;;;;;;5057830;28;20111;-63
2021/04/29 05:34:45;;;;;;;27.98;17.98;;;11.60;99.90;;;;;;5050640;28;20036;-64
2021/04/29 05:37:11;;;;;;;54.13;29.98;;;11.60;99.90;;;;;;5047243;28;20021;-64
2021/04/29 05:39:37;;;;;;;26.63;16.58;;;11.70;99.90;;;;;;5040049;28;20101;-64
2021/04/29 05:42:02;;;;;;;16.10;11.18;;;11.80;99.90;;;;;;5059209;28;20032;-64
2021/04/29 05:44:28;;;;;;;18.42;11.55;;;11.80;99.90;;;;;;5044183;28;20116;-64
2021/04/29 05:46:54;;;;;;;10.57;7.97;;;11.90;99.90;;;;;;5048278;28;20013;-64
2021/04/29 05:49:19;;;;;;;18.83;11.13;;;11.90;99.90;;;;;;5054931;28;20525;-65
2021/04/29 05:51:45;;;;;;;19.30;10.85;;;12.00;99.90;;;;;;5049922;28;20021;-64
2021/04/29 05:54:11;;;;;;;15.50;8.20;;;11.90;99.90;;;;;;5055796;28;20108;-63
2021/04/29 05:56:36;;;;;;;16.70;12.27;;;12.00;99.90;;;;;;5043734;28;20487;-65
2021/04/29 05:59:03;;;;;;;23.75;13.85;;;12.10;99.90;;;;;;5047185;28;20118;-64
2021/04/29 06:01:28;;;;;;;21.70;10.88;;;12.20;99.90;;;;;;5058880;28;20021;-65
2021/04/29 06:03:54;;;;;;;14.50;10.45;;;12.20;99.90;;;;;;5046846;28;20036;-64
2021/04/29 06:06:19;;;;;;;23.58;12.65;;;12.20;99.90;;;;;;5037675;28;20124;-64
2021/04/29 06:08:45;;;;;;;19.35;10.27;;;12.10;99.90;;;;;;5041130;28;20024;-63
2021/04/29 06:11:11;;;;;;;16.48;9.98;;;12.20;99.90;;;;;;5039066;28;20072;-64
2021/04/29 06:13:36;;;;;;;16.23;10.60;;;12.40;99.90;;;;;;5038883;28;20041;-65
2021/04/29 06:16:02;;;;;;;30.02;17.35;;;12.60;99.90;;;;;;5039378;28;20036;-63
2021/04/29 06:18:28;;;;;;;29.92;17.40;;;12.90;99.90;;;;;;5051761;28;20144;-64
2021/04/29 06:20:54;;;;;;;52.85;26.15;;;13.20;99.90;;;;;;5048668;28;20033;-65
2021/04/29 06:23:19;;;;;;;23.60;11.60;;;13.30;99.90;;;;;;5043833;28;20037;-65
2021/04/29 06:25:45;;;;;;;23.83;11.57;;;13.60;99.90;;;;;;5052020;28;20021;-65
2021/04/29 06:28:11;;;;;;;13.30;8.70;;;13.80;99.90;;;;;;5051869;28;20028;-64
2021/04/29 06:30:38;;;;;;;18.00;8.63;;;13.80;99.90;;;;;;5055570;28;20545;-65
2021/04/29 06:33:04;;;;;;;13.45;9.02;;;13.80;99.90;;;;;;5055269;28;20041;-65
2021/04/29 06:35:29;;;;;;;18.70;10.25;;;13.50;99.90;;;;;;5049940;28;20033;-64
2021/04/29 06:37:55;;;;;;;14.10;9.55;;;13.30;99.90;;;;;;5055221;28;20021;-64
2021/04/29 06:40:20;;;;;;;12.07;9.45;;;13.30;99.90;;;;;;5050703;28;20033;-64
2021/04/29 06:42:46;;;;;;;15.23;11.18;;;13.30;99.90;;;;;;5055443;28;20029;-64
2021/04/29 06:45:12;;;;;;;17.23;10.45;;;13.20;99.90;;;;;;5051803;28;20033;-63
2021/04/29 06:47:38;;;;;;;15.73;10.35;;;13.00;99.90;;;;;;5054887;28;20029;-63
2021/04/29 06:50:04;;;;;;;16.02;11.30;;;13.00;99.90;;;;;;5055067;28;20036;-64
2021/04/29 06:52:29;;;;;;;18.52;11.98;;;12.70;99.90;;;;;;5061729;28;20039;-65
2021/04/29 06:54:55;;;;;;;19.38;11.55;;;12.50;99.90;;;;;;5054021;28;20107;-64
2021/04/29 06:57:20;;;;;;;16.25;11.45;;;12.20;99.90;;;;;;5050080;28;20028;-65
2021/04/29 06:59:46;;;;;;;16.50;11.32;;;12.30;99.90;;;;;;5047971;28;20094;-64
2021/04/29 07:02:12;;;;;;;18.65;11.55;;;12.20;99.90;;;;;;5044291;28;20127;-62
2021/04/29 07:04:37;;;;;;;16.70;12.07;;;12.30;99.90;;;;;;5052865;28;20044;-65
2021/04/29 07:07:04;;;;;;;17.30;11.98;;;12.30;99.90;;;;;;5051428;28;20068;-64
2021/04/29 07:09:29;;;;;;;22.45;12.07;;;12.40;99.90;;;;;;5059018;28;20104;-65
2021/04/29 07:11:56;;;;;;;17.40;12.15;;;12.50;99.90;;;;;;5055094;28;20111;-66
2021/04/29 07:14:22;;;;;;;16.00;11.07;;;12.70;99.90;;;;;;5062838;28;20020;-64
2021/04/29 07:16:48;;;;;;;18.95;10.98;;;13.60;99.90;;;;;;5049112;28;20438;-64
2021/04/29 07:19:14;;;;;;;18.13;11.90;;;14.30;99.90;;;;;;5061214;28;20379;-64
2021/04/29 07:21:40;;;;;;;18.48;12.75;;;15.40;99.10;;;;;;5048336;28;20040;-65
2021/04/29 07:24:06;;;;;;;17.70;12.27;;;16.80;96.50;;;;;;5051095;28;20084;-65
2021/04/29 07:26:33;;;;;;;22.30;14.18;;;17.10;94.50;;;;;;5047081;28;20033;-62
2021/04/29 07:29:01;;;;;;;21.58;16.30;;;17.80;93.40;;;;;;5063108;28;20120;-61
2021/04/29 07:31:27;;;;;;;26.65;14.90;;;18.10;91.50;;;;;;5053137;28;20111;-63
2021/04/29 07:33:52;;;;;;;17.58;14.65;;;18.50;90.40;;;;;;5059644;28;20024;-64
2021/04/29 07:36:18;;;;;;;19.20;14.85;;;19.10;89.70;;;;;;5045366;28;20025;-63
2021/04/29 07:38:44;;;;;;;22.92;17.42;;;20.70;84.70;;;;;;5063443;28;20036;-64
2021/04/29 07:41:09;;;;;;;15.98;14.30;;;20.80;78.40;;;;;;5048051;28;20020;-64
2021/04/29 07:43:35;;;;;;;21.63;16.30;;;21.60;73.70;;;;;;5063623;28;20036;-64
2021/04/29 07:46:01;;;;;;;19.58;15.25;;;21.50;71.10;;;;;;5050365;28;20021;-64
2021/04/29 07:48:26;;;;;;;18.83;14.57;;;22.10;69.00;;;;;;5061688;28;20028;-63
2021/04/29 07:50:52;;;;;;;16.60;14.63;;;21.40;65.70;;;;;;5051247;28;20066;-63
2021/04/29 07:53:18;;;;;;;20.40;14.95;;;21.20;66.60;;;;;;5073471;28;20163;-63
2021/04/29 07:55:44;;;;;;;27.73;22.27;;;21.60;66.40;;;;;;5051692;28;20029;-64
2021/04/29 07:58:09;;;;;;;24.52;22.00;;;21.20;65.10;;;;;;5048732;28;20063;-64
2021/04/29 08:00:35;;;;;;;30.65;21.67;;;20.80;66.90;;;;;;5044839;28;20561;-63
2021/04/29 08:03:01;;;;;;;19.58;15.65;;;20.80;66.80;;;;;;5053044;28;20039;-64
2021/04/29 08:05:26;;;;;;;33.55;24.05;;;20.00;65.90;;;;;;5056631;28;20025;-64
2021/04/29 08:07:52;;;;;;;19.42;16.92;;;18.80;70.80;;;;;;5058556;28;20178;-64
2021/04/29 08:10:18;;;;;;;26.60;18.95;;;19.10;72.80;;;;;;5041846;28;20071;-64
2021/04/29 08:12:44;;;;;;;29.05;20.35;;;19.90;69.00;;;;;;5057907;28;20028;-62
2021/04/29 08:15:10;;;;;;;25.75;22.60;;;18.90;70.00;;;;;;5049667;28;20397;-63
2021/04/29 08:17:36;;;;;;;22.15;19.30;;;18.70;69.80;;;;;;5041868;28;20103;-64
2021/04/29 08:20:04;;;;;;;34.78;26.55;;;18.60;70.90;;;;;;5048288;28;20490;-64
2021/04/29 08:22:30;;;;;;;18.02;15.95;;;19.20;71.10;;;;;;5051774;28;20021;-64
2021/04/29 08:24:56;;;;;;;38.03;25.17;;;19.80;68.20;;;;;;5048660;28;20025;-64
2021/04/29 08:27:26;;;;;;;20.05;15.55;;;19.80;65.70;;;;;;5056690;28;20029;-63
2021/04/29 08:29:53;;;;;;;18.88;15.60;;;19.20;67.00;;;;;;5055765;28;20104;-64
2021/04/29 08:32:18;;;;;;;19.52;14.90;;;18.60;68.30;;;;;;5057188;28;20099;-63
2021/04/29 08:34:44;;;;;;;24.88;16.17;;;18.80;67.60;;;;;;5051571;28;20104;-63
2021/04/29 08:37:10;;;;;;;24.20;15.43;;;19.80;65.70;;;;;;5052487;28;20104;-64
2021/04/29 08:39:36;;;;;;;20.27;17.15;;;19.50;65.30;;;;;;5047365;28;20033;-64
2021/04/29 08:42:01;;;;;;;20.42;16.10;;;19.40;65.90;;;;;;5042494;28;20098;-63
2021/04/29 08:44:28;;;;;;;21.70;18.10;;;18.60;68.30;;;;;;5044471;28;20116;-63
2021/04/29 08:46:54;;;;;;;26.00;18.15;;;18.10;70.10;;;;;;5046494;28;20029;-59
2021/04/29 08:49:21;;;;;;;24.17;17.83;;;17.40;71.80;;;;;;5037953;28;20442;-61
2021/04/29 08:51:49;;;;;;;37.00;20.42;;;16.90;72.60;;;;;;5039541;28;20030;-63
2021/04/29 08:54:14;;;;;;;26.55;19.38;;;16.50;73.80;;;;;;5040962;28;20025;-60
2021/04/29 08:56:40;;;;;;;30.77;23.40;;;15.50;76.50;;;;;;5037509;28;20044;-63
2021/04/29 08:59:07;;;;;;;34.22;22.42;;;14.90;79.70;;;;;;5052859;28;20032;-63
2021/04/29 09:01:46;;;;;;;28.67;22.00;;;14.80;80.80;;;;;;5046195;28;20544;-63
2021/04/29 09:04:16;;;;;;;34.42;21.63;;;14.90;81.10;;;;;;5040675;28;20029;-63
2021/04/29 09:06:46;;;;;;;37.00;21.63;;;15.50;79.50;;;;;;5054534;28;20032;-62
2021/04/29 09:09:17;;;;;;;30.05;19.95;;;16.50;78.00;;;;;;5052399;28;20055;-63
2021/04/29 09:11:54;;;;;;;32.90;21.17;;;16.70;72.60;;;;;;5057118;28;20442;-63
2021/04/29 09:14:33;;;;;;;39.42;23.98;;;17.30;73.60;;;;;;5048794;28;20029;-62
2021/04/29 09:16:59;;;;;;;31.58;21.58;;;18.30;69.50;;;;;;5057737;28;20604;-63
2021/04/29 09:19:27;;;;;;;35.28;23.88;;;18.80;67.10;;;;;;5049901;28;20039;-63
2021/04/29 09:21:54;;;;;;;29.45;23.35;;;18.40;67.60;;;;;;5048631;28;20130;-63
2021/04/29 09:24:31;;;;;;;30.67;23.02;;;18.70;68.20;;;;;;5051742;28;20037;-62
2021/04/29 09:27:14;;;;;;;36.40;23.73;;;18.40;65.70;;;;;;5051084;28;20071;-62
2021/04/29 09:29:59;;;;;;;31.35;19.77;;;17.10;69.30;;;;;;5052401;28;20021;-63
2021/04/29 09:32:28;;;;;;;29.80;20.75;;;16.60;68.40;;;;;;5049347;28;20477;-62
2021/04/29 09:34:54;;;;;;;32.67;20.38;;;16.60;70.30;;;;;;5053570;28;20033;-61
2021/04/29 09:37:29;;;;;;;31.20;21.17;;;16.70;70.10;;;;;;5036841;28;20398;-63
2021/04/29 09:39:55;;;;;;;30.55;21.98;;;16.60;68.80;;;;;;5047714;28;20022;-62
2021/04/29 09:42:28;;;;;;;35.15;24.80;;;16.40;69.60;;;;;;5045251;28;20032;-63
2021/04/29 09:44:54;;;;;;;;;;;16.50;70.30;;;;;;5048401;28;20028;-63
2021/04/29 09:47:19;;;;;;;32.00;21.92;;;16.30;70.70;;;;;;5052216;28;19908;-62
2021/04/29 09:49:45;;;;;;;37.15;24.17;;;15.90;71.70;;;;;;5045969;28;20060;-62
2021/04/29 09:52:19;;;;;;;37.92;24.60;;;16.10;73.60;;;;;;5044590;28;20029;-63
2021/04/29 09:54:46;;;;;;;31.65;22.95;;;16.10;73.20;;;;;;5043157;28;20034;-63
2021/04/29 09:57:19;;;;;;;34.63;25.20;;;15.80;73.00;;;;;;5036062;28;20040;-63
2021/04/29 09:59:49;;;;;;;39.73;25.53;;;15.70;73.00;;;;;;5042264;28;20032;-63
2021/04/29 10:02:16;;;;;;;44.25;25.27;;;15.90;74.80;;;;;;5050163;28;20036;-59
2021/04/29 10:04:43;;;;;;;34.30;22.33;;;16.20;73.40;;;;;;5053056;28;20203;-61
2021/04/29 10:07:09;;;;;;;33.28;23.65;;;17.00;71.00;;;;;;5049603;28;20017;-64
2021/04/29 10:09:36;;;;;;;29.08;19.95;;;17.00;70.90;;;;;;5044903;28;20031;-64
2021/04/29 10:12:05;;;;;;;41.60;29.98;;;17.50;70.80;;;;;;5050603;28;20022;-62
2021/04/29 10:14:51;;;;;;;25.15;18.25;;;17.50;67.90;;;;;;5055248;28;20061;-63
2021/04/29 10:17:19;;;;;;;24.83;18.25;;;17.20;67.70;;;;;;5059939;28;20452;-63
2021/04/29 10:19:56;;;;;;;21.95;17.25;;;17.50;68.20;;;;;;5059523;28;20032;-63
2021/04/29 10:22:27;;;;;;;26.48;18.02;;;17.50;67.20;;;;;;5053666;28;20082;-63
2021/04/29 10:24:53;;;;;;;23.98;17.60;;;17.10;68.00;;;;;;5045367;28;20418;-63
2021/04/29 10:27:24;;;;;;;26.73;17.35;;;17.80;66.40;;;;;;5056097;28;20436;-61
2021/04/29 10:30:08;;;;;;;24.05;16.60;;;17.50;65.00;;;;;;5055216;28;20025;-63
2021/04/29 10:32:36;;;;;;;24.35;14.20;;;17.20;67.00;;;;;;5054901;28;20061;-63
2021/04/29 10:35:13;;;;;;;23.40;16.15;;;16.50;64.90;;;;;;5053401;28;20525;-63
2021/04/29 10:37:39;;;;;;;27.73;18.42;;;16.10;67.90;;;;;;5046561;28;20384;-63
2021/04/29 10:40:07;;;;;;;30.25;20.60;;;16.30;69.00;;;;;;5046670;28;20028;-63
2021/04/29 10:42:44;;;;;;;30.92;21.50;;;16.20;69.90;;;;;;5041821;28;20060;-63
2021/04/29 10:45:11;;;;;;;31.05;20.52;;;16.20;71.20;;;;;;5055012;28;20086;-64
2021/04/29 10:47:38;;;;;;;30.10;22.45;;;16.30;71.00;;;;;;5060232;28;20779;-63
2021/04/29 10:50:20;;;;;;;31.05;23.15;;;16.00;71.30;;;;;;5057935;28;20036;-64
2021/04/29 10:53:03;;;;;;;28.30;19.60;;;16.20;71.00;;;;;;5054408;28;20064;-64
2021/04/29 10:55:29;;;;;;;22.55;15.93;;;16.20;68.80;;;;;;5037105;28;20021;-64
2021/04/29 10:57:55;;;;;;;23.42;14.40;;;16.60;70.20;;;;;;5039142;28;20017;-63
2021/04/29 11:00:24;;;;;;;16.92;10.68;;;17.00;67.10;;;;;;5054527;28;20490;-63
2021/04/29 11:03:06;;;;;;;15.75;9.55;;;17.30;64.70;;;;;;5058620;28;20036;-63
2021/04/29 11:05:35;;;;;;;33.08;17.10;;;17.10;65.50;;;;;;5054865;28;20546;-63
2021/04/29 11:08:09;;;;;;;25.17;15.82;;;16.30;68.70;;;;;;5060504;28;20028;-64
2021/04/29 11:10:37;;;;;;;22.98;15.77;;;16.40;71.10;;;;;;5051771;28;20021;-61
2021/04/29 11:13:04;;;;;;;24.83;17.13;;;16.60;71.30;;;;;;5060933;28;20025;-64
2021/04/29 11:15:38;;;;;;;22.75;16.00;;;16.50;71.60;;;;;;5046654;28;20037;-64
2021/04/29 11:18:12;;;;;;;24.02;17.08;;;16.10;69.70;;;;;;5062120;28;20024;-64
2021/04/29 11:20:54;;;;;;;26.27;16.58;;;15.90;71.70;;;;;;5049712;28;20024;-63
2021/04/29 11:23:28;;;;;;;39.53;19.13;;;16.00;72.00;;;;;;5050242;28;20029;-62
2021/04/29 11:26:05;;;;;;;;;;;15.00;73.20;;;;;;5051295;28;20024;-62
2021/04/29 11:28:31;;;;;;;43.30;26.90;;;14.50;78.10;;;;;;5057462;28;20374;-63
2021/04/29 11:30:57;;;;;;;41.15;26.15;;;14.10;84.30;;;;;;5051940;28;20026;-63
2021/04/29 11:33:34;;;;;;;37.88;26.20;;;13.80;91.00;;;;;;5051758;28;20033;-64
2021/04/29 11:36:01;;;;;;;33.08;23.13;;;13.40;92.60;;;;;;5044827;28;20195;-61
2021/04/29 11:38:27;;;;;;;31.98;21.65;;;13.10;92.00;;;;;;5046740;28;20055;-63
2021/04/29 11:40:53;;;;;;;30.90;19.90;;;13.20;92.50;;;;;;5046941;28;20494;-64
2021/04/29 11:43:21;;;;;;;25.90;19.83;;;13.20;92.20;;;;;;5054228;28;20036;-62
2021/04/29 11:45:47;;;;;;;26.70;18.10;;;13.20;92.90;;;;;;5055735;28;20063;-63
2021/04/29 11:48:14;;;;;;;25.98;18.60;;;13.30;93.60;;;;;;5045557;28;20033;-62
2021/04/29 11:50:44;;;;;;;27.25;17.75;;;13.40;96.20;;;;;;5048426;28;20485;-63
2021/04/29 11:53:23;;;;;;;37.05;19.58;;;13.40;94.70;;;;;;5051288;28;20115;-63
2021/04/29 11:55:57;;;;;;;26.33;16.83;;;13.60;94.40;;;;;;5055198;28;20021;-63
2021/04/29 11:58:22;;;;;;;23.90;17.77;;;14.00;93.70;;;;;;5052801;28;20779;-63
2021/04/29 12:00:51;;;;;;;28.35;14.98;;;13.80;93.50;;;;;;5022712;28;20137;-62
2021/04/29 12:03:17;;;;;;;20.60;13.02;;;13.60;93.20;;;;;;5038488;28;20022;-62
2021/04/29 12:05:47;;;;;;;28.27;16.50;;;13.40;92.60;;;;;;5040084;28;20140;-62
2021/04/29 12:08:23;;;;;;;20.20;12.82;;;13.70;92.70;;;;;;5039160;28;20032;-63
2021/04/29 12:11:00;;;;;;;16.33;9.90;;;13.90;91.60;;;;;;5045851;28;20024;-62
2021/04/29 12:13:45;;;;;;;15.40;10.90;;;13.90;90.70;;;;;;5055561;28;20032;-63
2021/04/29 12:16:23;;;;;;;12.48;9.45;;;14.20;90.60;;;;;;5036849;28;20072;-64
2021/04/29 12:18:50;;;;;;;18.88;10.27;;;14.50;90.60;;;;;;5044622;28;20025;-63
2021/04/29 12:21:17;;;;;;;13.55;9.57;;;14.30;88.30;;;;;;5045358;28;20036;-63
2021/04/29 12:23:43;;;;;;;13.18;9.80;;;14.20;89.40;;;;;;5057651;28;20115;-62
2021/04/29 12:26:10;;;;;;;14.18;9.45;;;14.00;89.80;;;;;;5052052;28;20070;-63
2021/04/29 12:28:39;;;;;;;13.70;8.80;;;13.80;90.00;;;;;;5043451;28;20124;-62
2021/04/29 12:31:16;;;;;;;13.80;8.52;;;13.60;90.40;;;;;;5046559;28;20049;-64
2021/04/29 12:34:05;;;;;;;10.65;8.43;;;13.60;90.60;;;;;;5062138;28;20078;-64
2021/04/29 12:36:48;;;;;;;12.95;9.25;;;13.60;90.50;;;;;;5044191;28;20479;-64
2021/04/29 12:39:16;;;;;;;10.60;8.60;;;13.70;90.20;;;;;;5058052;28;20024;-64